sensor_id;sensor_type;location;lat;lon;timestamp;pressure;altitude;pressure_sealevel;temperature;humidity
5595;BME280;1003;48.002;7.788;2023-05-23T00:01:55;99271.78;;;16.53;100.00
5595;BME280;1003;48.002;7.788;2023-05-23T00:04:23;99283.47;;;16.58;100.00
5595;BME280;1003;48.002;7.788;2023-05-23T00:06:51;99281.31;;;16.47;100.00
5595;BME280;1003;48.002;7.788;2023-05-23T00:09:20;99287.47;;;16.38;100.00
5595;BME280;1003;48.002;7.788;2023-05-23T00:11:47;99287.69;;;16.32;100.00
5595;BME280;1003;48.002;7.788;2023-05-23T00:14:14;99296.34;;;16.25;100.00
5595;BME280;1003;48.002;7.788;2023-05-23T00:16:41;99294.00;;;16.19;100.00
5595;BME280;1003;48.002;7.788;2023-05-23T00:19:10;99314.44;;;16.14;100.00
5595;BME280;1003;48.002;7.788;2023-05-23T00:21:39;99326.47;;;16.08;100.00
5595;BME280;1003;48.002;7.788;2023-05-23T00:24:08;99327.50;;;16.02;100.00
5595;BME280;1003;48.002;7.788;2023-05-23T00:26:37;99333.50;;;15.99;100.00
5595;BME280;1003;48.002;7.788;2023-05-23T00:29:04;99331.78;;;16.00;100.00
5595;BME280;1003;48.002;7.788;2023-05-23T00:31:31;99341.09;;;15.99;100.00
5595;BME280;1003;48.002;7.788;2023-05-23T00:33:58;99336.94;;;15.97;100.00
5595;BME280;1003;48.002;7.788;2023-05-23T00:36:25;99337.81;;;15.96;100.00
5595;BME280;1003;48.002;7.788;2023-05-23T00:38:52;99342.09;;;15.94;100.00
5595;BME280;1003;48.002;7.788;2023-05-23T00:41:20;99341.28;;;15.93;100.00
5595;BME280;1003;48.002;7.788;2023-05-23T00:43:48;99340.47;;;15.93;100.00
5595;BME280;1003;48.002;7.788;2023-05-23T00:46:15;99343.00;;;15.93;100.00
5595;BME280;1003;48.002;7.788;2023-05-23T00:48:42;99407.31;;;15.89;100.00
5595;BME280;1003;48.002;7.788;2023-05-23T00:51:10;99410.72;;;15.88;100.00
5595;BME280;1003;48.002;7.788;2023-05-23T00:53:37;99404.84;;;15.86;100.00
5595;BME280;1003;48.002;7.788;2023-05-23T00:56:04;99406.56;;;15.85;100.00
5595;BME280;1003;48.002;7.788;2023-05-23T00:58:31;99409.84;;;15.89;100.00
5595;BME280;1003;48.002;7.788;2023-05-23T01:01:00;99417.22;;;15.96;100.00
5595;BME280;1003;48.002;7.788;2023-05-23T01:03:27;99427.00;;;16.10;100.00
5595;BME280;1003;48.002;7.788;2023-05-23T01:05:55;99425.94;;;16.17;100.00
5595;BME280;1003;48.002;7.788;2023-05-23T01:08:22;99419.84;;;16.23;100.00
5595;BME280;1003;48.002;7.788;2023-05-23T01:10:50;99421.44;;;16.27;100.00
5595;BME280;1003;48.002;7.788;2023-05-23T01:13:28;99416.94;;;16.35;100.00
5595;BME280;1003;48.002;7.788;2023-05-23T01:16:10;99423.50;;;16.42;100.00
5595;BME280;1003;48.002;7.788;2023-05-23T01:18:46;99419.13;;;16.47;100.00
5595;BME280;1003;48.002;7.788;2023-05-23T01:21:17;99408.84;;;16.52;100.00
5595;BME280;1003;48.002;7.788;2023-05-23T01:24:16;99404.41;;;16.59;100.00
5595;BME280;1003;48.002;7.788;2023-05-23T01:27:07;99398.34;;;16.63;100.00
5595;BME280;1003;48.002;7.788;2023-05-23T01:29:43;99401.50;;;16.71;100.00
5595;BME280;1003;48.002;7.788;2023-05-23T01:32:13;99394.59;;;16.76;100.00
5595;BME280;1003;48.002;7.788;2023-05-23T01:34:42;99380.84;;;16.82;100.00
5595;BME280;1003;48.002;7.788;2023-05-23T01:37:11;99367.88;;;16.91;100.00
5595;BME280;1003;48.002;7.788;2023-05-23T01:39:39;99346.53;;;16.96;100.00
5595;BME280;1003;48.002;7.788;2023-05-23T01:42:07;99315.09;;;16.99;100.00
5595;BME280;1003;48.002;7.788;2023-05-23T01:44:37;99290.44;;;17.02;100.00
5595;BME280;1003;48.002;7.788;2023-05-23T01:47:07;99274.22;;;17.07;100.00
5595;BME280;1003;48.002;7.788;2023-05-23T01:49:36;99266.56;;;17.08;100.00
5595;BME280;1003;48.002;7.788;2023-05-23T01:52:05;99261.47;;;17.08;100.00
5595;BME280;1003;48.002;7.788;2023-05-23T01:54:36;99257.97;;;17.11;100.00
5595;BME280;1003;48.002;7.788;2023-05-23T01:57:05;99259.53;;;17.15;100.00
5595;BME280;1003;48.002;7.788;2023-05-23T01:59:32;99273.72;;;16.97;100.00
5595;BME280;1003;48.002;7.788;2023-05-23T02:02:00;99305.53;;;16.82;100.00
5595;BME280;1003;48.002;7.788;2023-05-23T02:04:27;99324.13;;;16.83;100.00
5595;BME280;1003;48.002;7.788;2023-05-23T02:06:54;99337.09;;;16.75;100.00
5595;BME280;1003;48.002;7.788;2023-05-23T02:09:21;99362.72;;;16.66;100.00
5595;BME280;1003;48.002;7.788;2023-05-23T02:11:48;99371.69;;;16.49;100.00
5595;BME280;1003;48.002;7.788;2023-05-23T02:14:15;99379.31;;;16.49;100.00
5595;BME280;1003;48.002;7.788;2023-05-23T02:16:43;99383.06;;;16.38;100.00
5595;BME280;1003;48.002;7.788;2023-05-23T02:19:11;99385.13;;;16.25;100.00
5595;BME280;1003;48.002;7.788;2023-05-23T02:21:38;99392.31;;;16.11;100.00
5595;BME280;1003;48.002;7.788;2023-05-23T02:24:05;99399.94;;;16.11;100.00
5595;BME280;1003;48.002;7.788;2023-05-23T02:26:32;99392.81;;;15.94;100.00
5595;BME280;1003;48.002;7.788;2023-05-23T02:28:59;99401.44;;;15.87;100.00
5595;BME280;1003;48.002;7.788;2023-05-23T02:31:26;99399.13;;;15.79;100.00
5595;BME280;1003;48.002;7.788;2023-05-23T02:33:53;99410.41;;;15.69;100.00
5595;BME280;1003;48.002;7.788;2023-05-23T02:36:22;99424.97;;;15.61;100.00
5595;BME280;1003;48.002;7.788;2023-05-23T02:38:49;99438.47;;;15.60;100.00
5595;BME280;1003;48.002;7.788;2023-05-23T02:41:16;99451.00;;;15.67;100.00
5595;BME280;1003;48.002;7.788;2023-05-23T02:43:45;99448.34;;;15.70;100.00
5595;BME280;1003;48.002;7.788;2023-05-23T02:46:12;99446.59;;;15.74;100.00
5595;BME280;1003;48.002;7.788;2023-05-23T02:48:39;99454.97;;;15.76;100.00
5595;BME280;1003;48.002;7.788;2023-05-23T02:51:06;99449.78;;;15.81;100.00
5595;BME280;1003;48.002;7.788;2023-05-23T02:53:35;99454.81;;;15.82;100.00
5595;BME280;1003;48.002;7.788;2023-05-23T02:56:02;99451.34;;;15.85;100.00
5595;BME280;1003;48.002;7.788;2023-05-23T02:58:29;99443.75;;;15.85;100.00
5595;BME280;1003;48.002;7.788;2023-05-23T03:00:56;99442.94;;;15.84;100.00
5595;BME280;1003;48.002;7.788;2023-05-23T03:03:23;99443.75;;;15.85;100.00
5595;BME280;1003;48.002;7.788;2023-05-23T03:05:53;99476.66;;;15.86;100.00
5595;BME280;1003;48.002;7.788;2023-05-23T03:08:20;99485.25;;;15.82;100.00
5595;BME280;1003;48.002;7.788;2023-05-23T03:10:48;99486.78;;;15.86;100.00
5595;BME280;1003;48.002;7.788;2023-05-23T03:13:16;99490.31;;;15.81;100.00
5595;BME280;1003;48.002;7.788;2023-05-23T03:15:43;99499.69;;;15.79;100.00
5595;BME280;1003;48.002;7.788;2023-05-23T03:18:10;99493.91;;;15.73;100.00
5595;BME280;1003;48.002;7.788;2023-05-23T03:20:38;99501.34;;;15.80;100.00
5595;BME280;1003;48.002;7.788;2023-05-23T03:23:05;99504.75;;;15.79;100.00
5595;BME280;1003;48.002;7.788;2023-05-23T03:25:32;99506.25;;;15.86;100.00
5595;BME280;1003;48.002;7.788;2023-05-23T03:28:00;99500.22;;;15.90;100.00
5595;BME280;1003;48.002;7.788;2023-05-23T03:30:27;99501.00;;;15.93;100.00
5595;BME280;1003;48.002;7.788;2023-05-23T03:32:54;99509.38;;;15.95;100.00
5595;BME280;1003;48.002;7.788;2023-05-23T03:35:21;99505.91;;;15.98;100.00
5595;BME280;1003;48.002;7.788;2023-05-23T03:37:48;99505.78;;;16.02;100.00
5595;BME280;1003;48.002;7.788;2023-05-23T03:40:15;99511.63;;;16.06;100.00
5595;BME280;1003;48.002;7.788;2023-05-23T03:42:42;99519.94;;;16.11;100.00
5595;BME280;1003;48.002;7.788;2023-05-23T03:45:11;99511.34;;;16.17;100.00
5595;BME280;1003;48.002;7.788;2023-05-23T03:47:38;99509.63;;;16.17;100.00
5595;BME280;1003;48.002;7.788;2023-05-23T03:50:06;99513.78;;;16.20;100.00
5595;BME280;1003;48.002;7.788;2023-05-23T03:52:33;99516.19;;;16.24;100.00
5595;BME280;1003;48.002;7.788;2023-05-23T03:55:00;99510.06;;;16.32;100.00
5595;BME280;1003;48.002;7.788;2023-05-23T03:57:29;99514.09;;;16.39;100.00
5595;BME280;1003;48.002;7.788;2023-05-23T03:59:56;99507.31;;;16.39;100.00
5595;BME280;1003;48.002;7.788;2023-05-23T04:02:24;99495.44;;;16.41;100.00
5595;BME280;1003;48.002;7.788;2023-05-23T04:04:51;99486.88;;;16.44;100.00
5595;BME280;1003;48.002;7.788;2023-05-23T04:07:22;99482.63;;;16.44;100.00
5595;BME280;1003;48.002;7.788;2023-05-23T04:09:51;99467.38;;;16.46;100.00
5595;BME280;1003;48.002;7.788;2023-05-23T04:12:19;99474.97;;;16.46;100.00
5595;BME280;1003;48.002;7.788;2023-05-23T04:14:46;99466.28;;;16.54;100.00
5595;BME280;1003;48.002;7.788;2023-05-23T04:17:14;99449.53;;;16.49;100.00
5595;BME280;1003;48.002;7.788;2023-05-23T04:19:43;99451.13;;;16.51;100.00
5595;BME280;1003;48.002;7.788;2023-05-23T04:22:10;99434.84;;;16.59;100.00
5595;BME280;1003;48.002;7.788;2023-05-23T04:24:37;99438.72;;;16.70;100.00
5595;BME280;1003;48.002;7.788;2023-05-23T04:27:05;99425.03;;;16.76;100.00
5595;BME280;1003;48.002;7.788;2023-05-23T04:29:33;99408.94;;;16.77;100.00
5595;BME280;1003;48.002;7.788;2023-05-23T04:32:00;99402.06;;;16.81;100.00
5595;BME280;1003;48.002;7.788;2023-05-23T04:34:27;99391.91;;;16.81;100.00
5595;BME280;1003;48.002;7.788;2023-05-23T04:36:56;99384.97;;;16.86;100.00
5595;BME280;1003;48.002;7.788;2023-05-23T04:39:26;99377.19;;;16.90;100.00
5595;BME280;1003;48.002;7.788;2023-05-23T04:41:54;99373.56;;;16.97;100.00
5595;BME280;1003;48.002;7.788;2023-05-23T04:44:22;99367.59;;;16.98;100.00
5595;BME280;1003;48.002;7.788;2023-05-23T04:46:51;99370.88;;;17.02;100.00
5595;BME280;1003;48.002;7.788;2023-05-23T04:49:18;99376.66;;;17.05;100.00
5595;BME280;1003;48.002;7.788;2023-05-23T04:51:47;99369.84;;;17.08;100.00
5595;BME280;1003;48.002;7.788;2023-05-23T04:54:15;99378.81;;;17.18;100.00
5595;BME280;1003;48.002;7.788;2023-05-23T04:56:42;99378.50;;;17.27;100.00
5595;BME280;1003;48.002;7.788;2023-05-23T04:59:09;99385.56;;;17.44;100.00
5595;BME280;1003;48.002;7.788;2023-05-23T05:01:37;99381.84;;;17.77;100.00
5595;BME280;1003;48.002;7.788;2023-05-23T05:04:05;99371.41;;;18.07;100.00
5595;BME280;1003;48.002;7.788;2023-05-23T05:06:33;99361.88;;;18.12;100.00
5595;BME280;1003;48.002;7.788;2023-05-23T05:09:00;99342.66;;;18.27;100.00
5595;BME280;1003;48.002;7.788;2023-05-23T05:11:30;99319.44;;;18.34;100.00
5595;BME280;1003;48.002;7.788;2023-05-23T05:13:57;99309.09;;;18.39;100.00
5595;BME280;1003;48.002;7.788;2023-05-23T05:16:24;99300.41;;;18.23;100.00
5595;BME280;1003;48.002;7.788;2023-05-23T05:18:51;99297.69;;;18.27;100.00
5595;BME280;1003;48.002;7.788;2023-05-23T05:21:18;99285.53;;;18.34;100.00
5595;BME280;1003;48.002;7.788;2023-05-23T05:23:45;99292.50;;;18.51;100.00
5595;BME280;1003;48.002;7.788;2023-05-23T05:26:12;99281.00;;;18.83;100.00
5595;BME280;1003;48.002;7.788;2023-05-23T05:28:41;99264.75;;;19.25;100.00
5595;BME280;1003;48.002;7.788;2023-05-23T05:31:08;99255.13;;;19.31;100.00
5595;BME280;1003;48.002;7.788;2023-05-23T05:33:39;99245.06;;;19.09;100.00
5595;BME280;1003;48.002;7.788;2023-05-23T05:36:10;99243.38;;;18.90;100.00
5595;BME280;1003;48.002;7.788;2023-05-23T05:38:37;99238.03;;;18.55;100.00
5595;BME280;1003;48.002;7.788;2023-05-23T05:41:04;99248.47;;;18.49;100.00
5595;BME280;1003;48.002;7.788;2023-05-23T05:43:31;99246.25;;;18.41;100.00
5595;BME280;1003;48.002;7.788;2023-05-23T05:46:00;99242.25;;;18.35;100.00
5595;BME280;1003;48.002;7.788;2023-05-23T05:48:27;99242.84;;;18.20;100.00
5595;BME280;1003;48.002;7.788;2023-05-23T05:50:54;99246.06;;;18.03;100.00
5595;BME280;1003;48.002;7.788;2023-05-23T05:53:21;99265.88;;;17.95;100.00
5595;BME280;1003;48.002;7.788;2023-05-23T05:55:48;99279.25;;;18.00;100.00
5595;BME280;1003;48.002;7.788;2023-05-23T05:58:15;99274.56;;;17.90;100.00
5595;BME280;1003;48.002;7.788;2023-05-23T06:00:42;99282.09;;;17.93;100.00
5595;BME280;1003;48.002;7.788;2023-05-23T06:03:11;99281.22;;;17.94;100.00
5595;BME280;1003;48.002;7.788;2023-05-23T06:05:38;99285.56;;;17.90;100.00
5595;BME280;1003;48.002;7.788;2023-05-23T06:08:06;99284.41;;;17.99;100.00
5595;BME280;1003;48.002;7.788;2023-05-23T06:10:33;99284.75;;;17.90;100.00
5595;BME280;1003;48.002;7.788;2023-05-23T06:13:03;99284.22;;;17.81;100.00
5595;BME280;1003;48.002;7.788;2023-05-23T06:15:30;99288.53;;;17.79;100.00
5595;BME280;1003;48.002;7.788;2023-05-23T06:17:57;99281.44;;;17.88;100.00
5595;BME280;1003;48.002;7.788;2023-05-23T06:20:25;99290.56;;;17.93;100.00
5595;BME280;1003;48.002;7.788;2023-05-23T06:22:53;99288.25;;;17.87;100.00
5595;BME280;1003;48.002;7.788;2023-05-23T06:25:20;99296.81;;;17.84;100.00
5595;BME280;1003;48.002;7.788;2023-05-23T06:27:47;99291.13;;;18.00;100.00
5595;BME280;1003;48.002;7.788;2023-05-23T06:30:15;99287.84;;;17.98;100.00
5595;BME280;1003;48.002;7.788;2023-05-23T06:32:42;99286.38;;;18.13;100.00
5595;BME280;1003;48.002;7.788;2023-05-23T06:35:09;99294.81;;;18.15;100.00
5595;BME280;1003;48.002;7.788;2023-05-23T06:37:37;99285.88;;;18.04;100.00
5595;BME280;1003;48.002;7.788;2023-05-23T06:40:10;99286.53;;;18.09;100.00
5595;BME280;1003;48.002;7.788;2023-05-23T06:42:38;99280.72;;;18.06;100.00
5595;BME280;1003;48.002;7.788;2023-05-23T06:45:07;99286.28;;;17.94;100.00
5595;BME280;1003;48.002;7.788;2023-05-23T06:47:34;99301.41;;;17.97;100.00
5595;BME280;1003;48.002;7.788;2023-05-23T06:50:01;99304.28;;;18.11;100.00
5595;BME280;1003;48.002;7.788;2023-05-23T06:52:28;99285.78;;;18.28;100.00
5595;BME280;1003;48.002;7.788;2023-05-23T06:54:57;99288.81;;;18.58;100.00
5595;BME280;1003;48.002;7.788;2023-05-23T06:57:24;99273.13;;;18.89;100.00
5595;BME280;1003;48.002;7.788;2023-05-23T06:59:51;99267.16;;;18.70;100.00
5595;BME280;1003;48.002;7.788;2023-05-23T07:02:18;99260.34;;;18.70;100.00
5595;BME280;1003;48.002;7.788;2023-05-23T07:04:45;99255.53;;;18.83;100.00
5595;BME280;1003;48.002;7.788;2023-05-23T07:07:12;99245.75;;;18.94;100.00
5595;BME280;1003;48.002;7.788;2023-05-23T07:09:39;99244.94;;;19.31;100.00
5595;BME280;1003;48.002;7.788;2023-05-23T07:12:08;99224.28;;;19.37;100.00
5595;BME280;1003;48.002;7.788;2023-05-23T07:14:38;99220.19;;;19.52;100.00
5595;BME280;1003;48.002;7.788;2023-05-23T07:17:05;99220.00;;;19.38;100.00
5595;BME280;1003;48.002;7.788;2023-05-23T07:19:32;99216.97;;;19.30;100.00
5595;BME280;1003;48.002;7.788;2023-05-23T07:21:59;99206.31;;;19.22;100.00
5595;BME280;1003;48.002;7.788;2023-05-23T07:24:26;99196.38;;;19.15;100.00
5595;BME280;1003;48.002;7.788;2023-05-23T07:26:53;99194.78;;;19.13;100.00
5595;BME280;1003;48.002;7.788;2023-05-23T07:29:22;99187.09;;;19.33;100.00
5595;BME280;1003;48.002;7.788;2023-05-23T07:31:49;99184.66;;;19.49;100.00
5595;BME280;1003;48.002;7.788;2023-05-23T07:34:16;99181.88;;;19.73;100.00
5595;BME280;1003;48.002;7.788;2023-05-23T07:36:43;99178.44;;;20.08;100.00
5595;BME280;1003;48.002;7.788;2023-05-23T07:39:10;99157.25;;;20.41;100.00
5595;BME280;1003;48.002;7.788;2023-05-23T07:41:37;99141.84;;;20.76;100.00
5595;BME280;1003;48.002;7.788;2023-05-23T07:44:04;99134.31;;;20.90;100.00
5595;BME280;1003;48.002;7.788;2023-05-23T07:46:33;99111.44;;;21.18;100.00
5595;BME280;1003;48.002;7.788;2023-05-23T07:49:00;99103.63;;;21.37;100.00
5595;BME280;1003;48.002;7.788;2023-05-23T07:51:27;99108.72;;;21.53;100.00
5595;BME280;1003;48.002;7.788;2023-05-23T07:53:54;99099.34;;;22.26;100.00
5595;BME280;1003;48.002;7.788;2023-05-23T07:56:21;99069.72;;;22.37;100.00
5595;BME280;1003;48.002;7.788;2023-05-23T07:58:48;99041.88;;;22.59;100.00
5595;BME280;1003;48.002;7.788;2023-05-23T08:01:15;99028.09;;;22.33;100.00
5595;BME280;1003;48.002;7.788;2023-05-23T08:03:44;99029.84;;;22.33;100.00
5595;BME280;1003;48.002;7.788;2023-05-23T08:06:11;99040.78;;;21.63;100.00
5595;BME280;1003;48.002;7.788;2023-05-23T08:08:39;99054.19;;;21.53;100.00
5595;BME280;1003;48.002;7.788;2023-05-23T08:11:08;99070.97;;;21.11;100.00
5595;BME280;1003;48.002;7.788;2023-05-23T08:13:35;99093.25;;;20.77;100.00
5595;BME280;1003;48.002;7.788;2023-05-23T08:16:02;99102.44;;;20.48;100.00
5595;BME280;1003;48.002;7.788;2023-05-23T08:18:29;99116.50;;;20.22;100.00
5595;BME280;1003;48.002;7.788;2023-05-23T08:21:00;99122.94;;;20.47;100.00
5595;BME280;1003;48.002;7.788;2023-05-23T08:23:27;99106.66;;;20.32;100.00
5595;BME280;1003;48.002;7.788;2023-05-23T08:25:54;99109.13;;;20.33;100.00
5595;BME280;1003;48.002;7.788;2023-05-23T08:28:21;99106.41;;;20.54;100.00
5595;BME280;1003;48.002;7.788;2023-05-23T08:30:48;99115.66;;;20.56;100.00
5595;BME280;1003;48.002;7.788;2023-05-23T08:33:16;99105.13;;;20.94;100.00
5595;BME280;1003;48.002;7.788;2023-05-23T08:35:43;99096.06;;;21.04;100.00
5595;BME280;1003;48.002;7.788;2023-05-23T08:38:12;99102.63;;;21.08;100.00
5595;BME280;1003;48.002;7.788;2023-05-23T08:40:41;99091.25;;;21.14;100.00
5595;BME280;1003;48.002;7.788;2023-05-23T08:43:15;99095.31;;;20.86;100.00
5595;BME280;1003;48.002;7.788;2023-05-23T08:45:42;99098.53;;;21.06;100.00
5595;BME280;1003;48.002;7.788;2023-05-23T08:48:12;99087.34;;;21.54;100.00
5595;BME280;1003;48.002;7.788;2023-05-23T08:50:46;99074.97;;;21.77;100.00
5595;BME280;1003;48.002;7.788;2023-05-23T08:53:16;99058.84;;;21.60;100.00
5595;BME280;1003;48.002;7.788;2023-05-23T08:55:46;99056.25;;;21.46;100.00
5595;BME280;1003;48.002;7.788;2023-05-23T08:58:14;99066.09;;;21.22;100.00
5595;BME280;1003;48.002;7.788;2023-05-23T09:00:42;99085.91;;;21.03;100.00
5595;BME280;1003;48.002;7.788;2023-05-23T09:03:10;99080.72;;;21.04;100.00
5595;BME280;1003;48.002;7.788;2023-05-23T09:05:37;99080.72;;;20.73;100.00
5595;BME280;1003;48.002;7.788;2023-05-23T09:08:04;99099.94;;;20.95;100.00
5595;BME280;1003;48.002;7.788;2023-05-23T09:10:33;99097.03;;;20.86;100.00
5595;BME280;1003;48.002;7.788;2023-05-23T09:13:00;99097.13;;;21.00;100.00
5595;BME280;1003;48.002;7.788;2023-05-23T09:15:30;99066.78;;;21.56;100.00
5595;BME280;1003;48.002;7.788;2023-05-23T09:17:59;99050.03;;;21.94;100.00
5595;BME280;1003;48.002;7.788;2023-05-23T09:20:28;99049.88;;;21.97;100.00
5595;BME280;1003;48.002;7.788;2023-05-23T09:22:56;99033.97;;;22.21;100.00
5595;BME280;1003;48.002;7.788;2023-05-23T09:25:23;99037.53;;;22.47;100.00
5595;BME280;1003;48.002;7.788;2023-05-23T09:27:51;99001.28;;;22.12;100.00
5595;BME280;1003;48.002;7.788;2023-05-23T09:30:21;99009.19;;;22.21;100.00
5595;BME280;1003;48.002;7.788;2023-05-23T09:32:58;99006.53;;;22.09;100.00
5595;BME280;1003;48.002;7.788;2023-05-23T09:35:27;99016.97;;;21.91;100.00
5595;BME280;1003;48.002;7.788;2023-05-23T09:37:57;99012.03;;;22.02;100.00
5595;BME280;1003;48.002;7.788;2023-05-23T09:40:29;99016.22;;;21.75;100.00
5595;BME280;1003;48.002;7.788;2023-05-23T09:43:03;99008.91;;;22.26;100.00
5595;BME280;1003;48.002;7.788;2023-05-23T09:45:32;98990.19;;;22.67;100.00
5595;BME280;1003;48.002;7.788;2023-05-23T09:47:59;98967.28;;;22.37;100.00
5595;BME280;1003;48.002;7.788;2023-05-23T09:50:31;98983.03;;;21.88;100.00
5595;BME280;1003;48.002;7.788;2023-05-23T09:52:59;99003.53;;;22.16;100.00
5595;BME280;1003;48.002;7.788;2023-05-23T09:55:26;98982.09;;;22.46;100.00
5595;BME280;1003;48.002;7.788;2023-05-23T09:57:54;98961.31;;;22.77;100.00
5595;BME280;1003;48.002;7.788;2023-05-23T10:00:26;98957.50;;;22.70;100.00
5595;BME280;1003;48.002;7.788;2023-05-23T10:03:00;98942.19;;;23.36;100.00
5595;BME280;1003;48.002;7.788;2023-05-23T10:05:40;98925.03;;;23.23;100.00
5595;BME280;1003;48.002;7.788;2023-05-23T10:08:35;98951.00;;;22.65;100.00
5595;BME280;1003;48.002;7.788;2023-05-23T10:14:16;98963.59;;;22.82;100.00
5595;BME280;1003;48.002;7.788;2023-05-23T10:16:54;98948.38;;;22.66;100.00
5595;BME280;1003;48.002;7.788;2023-05-23T10:19:34;98941.00;;;22.47;100.00
5595;BME280;1003;48.002;7.788;2023-05-23T10:22:09;98924.78;;;22.88;100.00
5595;BME280;1003;48.002;7.788;2023-05-23T10:24:37;98926.44;;;23.02;100.00
5595;BME280;1003;48.002;7.788;2023-05-23T10:27:06;98922.28;;;23.26;100.00
5595;BME280;1003;48.002;7.788;2023-05-23T10:29:34;98902.44;;;22.90;100.00
5595;BME280;1003;48.002;7.788;2023-05-23T10:32:05;98921.06;;;22.25;100.00
5595;BME280;1003;48.002;7.788;2023-05-23T10:34:41;98919.06;;;22.02;100.00
5595;BME280;1003;48.002;7.788;2023-05-23T10:37:28;98919.44;;;22.10;100.00
5595;BME280;1003;48.002;7.788;2023-05-23T10:42:47;98930.22;;;21.87;100.00
5595;BME280;1003;48.002;7.788;2023-05-23T10:45:19;98946.94;;;21.92;100.00
5595;BME280;1003;48.002;7.788;2023-05-23T10:47:51;98955.28;;;22.10;100.00
5595;BME280;1003;48.002;7.788;2023-05-23T10:50:30;98940.63;;;21.98;100.00
5595;BME280;1003;48.002;7.788;2023-05-23T10:53:00;98916.56;;;22.00;100.00
5595;BME280;1003;48.002;7.788;2023-05-23T10:55:31;98922.72;;;21.84;100.00
5595;BME280;1003;48.002;7.788;2023-05-23T10:58:09;98917.63;;;22.12;100.00
5595;BME280;1003;48.002;7.788;2023-05-23T11:00:37;98923.44;;;22.14;100.00
5595;BME280;1003;48.002;7.788;2023-05-23T11:03:07;98927.50;;;21.75;100.00
5595;BME280;1003;48.002;7.788;2023-05-23T11:05:36;98928.75;;;21.68;100.00
5595;BME280;1003;48.002;7.788;2023-05-23T11:08:09;98929.06;;;21.64;100.00
5595;BME280;1003;48.002;7.788;2023-05-23T11:10:57;98920.75;;;21.74;100.00
5595;BME280;1003;48.002;7.788;2023-05-23T11:13:52;98905.94;;;21.80;100.00
5595;BME280;1003;48.002;7.788;2023-05-23T11:16:27;98902.00;;;21.74;100.00
5595;BME280;1003;48.002;7.788;2023-05-23T11:19:23;98905.00;;;21.81;100.00
5595;BME280;1003;48.002;7.788;2023-05-23T11:21:58;98914.59;;;21.91;100.00
5595;BME280;1003;48.002;7.788;2023-05-23T11:24:47;98918.09;;;21.47;100.00
5595;BME280;1003;48.002;7.788;2023-05-23T11:27:16;98924.75;;;21.64;100.00
5595;BME280;1003;48.002;7.788;2023-05-23T11:29:56;98932.72;;;21.74;100.00
5595;BME280;1003;48.002;7.788;2023-05-23T11:32:23;98923.75;;;21.81;100.00
5595;BME280;1003;48.002;7.788;2023-05-23T11:34:52;98922.09;;;21.66;100.00
5595;BME280;1003;48.002;7.788;2023-05-23T11:37:19;98924.63;;;21.94;100.00
5595;BME280;1003;48.002;7.788;2023-05-23T11:39:48;98925.22;;;21.71;100.00
5595;BME280;1003;48.002;7.788;2023-05-23T11:42:15;98927.28;;;21.93;100.00
5595;BME280;1003;48.002;7.788;2023-05-23T11:44:42;98913.13;;;22.16;100.00
5595;BME280;1003;48.002;7.788;2023-05-23T11:47:09;98919.16;;;22.15;100.00
5595;BME280;1003;48.002;7.788;2023-05-23T11:49:38;98906.81;;;22.07;100.00
5595;BME280;1003;48.002;7.788;2023-05-23T11:52:07;98906.25;;;22.16;100.00
5595;BME280;1003;48.002;7.788;2023-05-23T11:54:35;98913.03;;;22.17;100.00
5595;BME280;1003;48.002;7.788;2023-05-23T11:57:03;98891.44;;;22.07;100.00
5595;BME280;1003;48.002;7.788;2023-05-23T11:59:33;98909.00;;;21.99;100.00
5595;BME280;1003;48.002;7.788;2023-05-23T12:02:01;98901.72;;;21.79;100.00
5595;BME280;1003;48.002;7.788;2023-05-23T12:04:29;98901.88;;;22.04;100.00
5595;BME280;1003;48.002;7.788;2023-05-23T12:06:56;98897.28;;;22.09;100.00
5595;BME280;1003;48.002;7.788;2023-05-23T12:09:24;98892.53;;;22.03;100.00
5595;BME280;1003;48.002;7.788;2023-05-23T12:11:51;98906.09;;;21.91;100.00
5595;BME280;1003;48.002;7.788;2023-05-23T12:14:19;98899.09;;;21.66;100.00
5595;BME280;1003;48.002;7.788;2023-05-23T12:16:46;98910.75;;;21.84;100.00
5595;BME280;1003;48.002;7.788;2023-05-23T12:19:15;98905.66;;;21.56;100.00
5595;BME280;1003;48.002;7.788;2023-05-23T12:21:44;98899.91;;;21.66;100.00
5595;BME280;1003;48.002;7.788;2023-05-23T12:24:16;98908.31;;;21.54;100.00
5595;BME280;1003;48.002;7.788;2023-05-23T12:26:52;98907.56;;;21.66;100.00
5595;BME280;1003;48.002;7.788;2023-05-23T12:29:21;98916.16;;;21.80;100.00
5595;BME280;1003;48.002;7.788;2023-05-23T12:31:53;98902.47;;;21.66;100.00
5595;BME280;1003;48.002;7.788;2023-05-23T12:34:21;98899.44;;;21.60;100.00
5595;BME280;1003;48.002;7.788;2023-05-23T12:36:48;98891.50;;;21.64;100.00
5595;BME280;1003;48.002;7.788;2023-05-23T12:39:23;98894.50;;;21.85;100.00
5595;BME280;1003;48.002;7.788;2023-05-23T12:41:53;98888.72;;;21.96;100.00
5595;BME280;1003;48.002;7.788;2023-05-23T12:44:23;98881.13;;;21.94;100.00
5595;BME280;1003;48.002;7.788;2023-05-23T12:46:55;98899.97;;;21.79;100.00
5595;BME280;1003;48.002;7.788;2023-05-23T12:49:23;98875.78;;;21.70;100.00
5595;BME280;1003;48.002;7.788;2023-05-23T12:51:50;98867.56;;;21.80;100.00
5595;BME280;1003;48.002;7.788;2023-05-23T12:54:17;98878.56;;;21.94;100.00
5595;BME280;1003;48.002;7.788;2023-05-23T12:56:45;98882.00;;;21.81;100.00
5595;BME280;1003;48.002;7.788;2023-05-23T12:59:13;98882.72;;;21.68;100.00
5595;BME280;1003;48.002;7.788;2023-05-23T13:01:41;98886.47;;;21.77;100.00
5595;BME280;1003;48.002;7.788;2023-05-23T13:04:08;98871.09;;;21.91;100.00
5595;BME280;1003;48.002;7.788;2023-05-23T13:06:35;98875.88;;;22.24;100.00
5595;BME280;1003;48.002;7.788;2023-05-23T13:09:02;98867.34;;;21.97;100.00
5595;BME280;1003;48.002;7.788;2023-05-23T13:11:30;98865.88;;;21.93;100.00
5595;BME280;1003;48.002;7.788;2023-05-23T13:13:57;98863.25;;;21.80;100.00
5595;BME280;1003;48.002;7.788;2023-05-23T13:16:25;98867.13;;;22.00;100.00
5595;BME280;1003;48.002;7.788;2023-05-23T13:18:52;98866.13;;;22.02;100.00
5595;BME280;1003;48.002;7.788;2023-05-23T13:21:19;98862.41;;;21.94;100.00
5595;BME280;1003;48.002;7.788;2023-05-23T13:23:46;98862.25;;;21.83;100.00
5595;BME280;1003;48.002;7.788;2023-05-23T13:26:13;98867.63;;;21.92;100.00